createdAt,value
2022-11-15T00:05:00.895Z,11.88
2022-11-15T00:15:05.402Z,11.48
2022-11-15T00:25:08.770Z,11.77
2022-11-15T00:35:12.721Z,11.43
2022-11-15T00:45:15.391Z,11.57
2022-11-15T00:55:20.821Z,10.93
2022-11-15T01:05:23.566Z,10.40
2022-11-15T01:15:27.586Z,10.48
2022-11-15T01:25:30.328Z,10.27
2022-11-15T01:35:34.266Z,10.57
2022-11-15T01:45:37.016Z,11.60
2022-11-15T01:55:41.018Z,11.38
2022-11-15T02:05:45.138Z,11.30
2022-11-15T02:16:02.964Z,11.63
2022-11-15T02:26:30.370Z,11.07
2022-11-15T02:36:43.866Z,11.23
2022-11-15T02:47:10.887Z,11.07
2022-11-15T02:57:18.421Z,10.55
2022-11-15T03:07:26.592Z,10.98
2022-11-15T03:17:32.951Z,12.88
2022-11-15T03:27:39.924Z,11.52
2022-11-15T03:37:48.862Z,11.75
2022-11-15T03:47:56.711Z,11.20
2022-11-15T03:58:02.361Z,11.52
2022-11-15T04:08:05.578Z,12.20
2022-11-15T04:18:09.605Z,10.90
2022-11-15T04:28:12.774Z,11.20
2022-11-15T04:38:16.768Z,11.55
2022-11-15T04:48:19.419Z,10.52
2022-11-15T04:58:23.378Z,11.70
2022-11-15T05:08:26.169Z,11.50
2022-11-15T05:18:30.161Z,11.77
2022-11-15T05:28:32.925Z,11.20
2022-11-15T05:38:36.859Z,11.13
2022-11-15T05:48:43.859Z,12.25
2022-11-15T05:58:48.025Z,11.98
2022-11-15T06:08:50.622Z,12.52
2022-11-15T06:18:54.635Z,11.52
2022-11-15T06:28:57.218Z,11.05
2022-11-15T06:39:01.359Z,11.43
2022-11-15T06:49:09.383Z,11.70
2022-11-15T06:59:13.959Z,10.82
2022-11-15T07:09:16.839Z,9.65
2022-11-15T07:19:20.836Z,10.18
2022-11-15T07:29:23.441Z,9.55
2022-11-15T07:39:27.426Z,9.38
2022-11-15T07:49:30.045Z,9.95
2022-11-15T07:59:34.006Z,9.93
2022-11-15T08:09:36.634Z,9.35
2022-11-15T08:19:40.578Z,10.25
2022-11-15T08:29:44.593Z,9.10
2022-11-15T08:39:48.607Z,9.18
2022-11-15T08:49:51.241Z,9.05
2022-11-15T08:59:55.629Z,9.43
2022-11-15T09:09:58.229Z,9.05
2022-11-15T09:20:02.222Z,8.50
2022-11-15T09:30:05.966Z,8.15
2022-11-15T09:40:13.243Z,7.95
2022-11-15T09:50:19.686Z,7.47
2022-11-15T10:00:45.779Z,8.45
2022-11-15T10:11:04.999Z,7.97
2022-11-15T10:21:19.751Z,8.00
2022-11-15T10:31:28.816Z,8.15
2022-11-15T10:41:37.092Z,7.75
2022-11-15T10:51:44.898Z,8.38
2022-11-15T11:01:50.026Z,8.65
2022-11-15T11:11:53.964Z,8.85
2022-11-15T11:22:06.452Z,8.40
2022-11-15T11:32:24.930Z,8.40
2022-11-15T11:42:41.657Z,7.80
2022-11-15T11:52:54.028Z,7.30
2022-11-15T12:03:09.973Z,7.53
2022-11-15T12:13:18.537Z,7.65
2022-11-15T12:23:29.630Z,5.65
2022-11-15T12:33:34.966Z,5.53
2022-11-15T12:43:42.248Z,4.53
2022-11-15T12:53:44.936Z,5.00
2022-11-15T13:04:23.854Z,3.80
2022-11-15T13:14:47.694Z,3.27
2022-11-15T13:24:51.665Z,3.15
2022-11-15T13:34:54.627Z,2.97
2022-11-15T13:45:00.449Z,3.00
2022-11-15T13:55:08.502Z,1.80
2022-11-15T14:05:18.880Z,1.83
2022-11-15T14:15:29.693Z,1.42
2022-11-15T14:25:34.725Z,1.85
2022-11-15T14:35:40.809Z,2.17
2022-11-15T14:45:44.893Z,1.92
2022-11-15T14:55:47.533Z,2.13
2022-11-15T15:05:51.609Z,2.55
2022-11-15T15:15:54.374Z,2.30
2022-11-15T15:25:59.094Z,3.33
2022-11-15T15:36:01.888Z,3.35
2022-11-15T15:46:06.815Z,3.13
2022-11-15T15:56:10.855Z,4.00
2022-11-15T16:06:37.398Z,3.90
2022-11-15T16:16:40.058Z,4.45
2022-11-15T16:26:44.091Z,3.20
2022-11-15T16:36:46.908Z,3.97
2022-11-15T16:46:51.880Z,4.18
2022-11-15T16:56:54.625Z,4.82
2022-11-15T17:06:58.745Z,5.03
2022-11-15T17:17:01.586Z,4.43
2022-11-15T17:27:05.594Z,4.70
2022-11-15T17:37:08.458Z,4.68
2022-11-15T17:47:12.438Z,5.07
2022-11-15T17:57:15.035Z,5.78
2022-11-15T18:07:19.155Z,4.80
2022-11-15T18:17:21.860Z,5.60
2022-11-15T18:27:25.873Z,6.50
2022-11-15T18:37:28.552Z,5.32
2022-11-15T18:47:32.587Z,4.80
2022-11-15T18:57:35.295Z,4.35
2022-11-15T19:07:39.462Z,4.80
2022-11-15T19:17:42.111Z,4.65
2022-11-15T19:27:46.086Z,5.05
2022-11-15T19:37:48.710Z,4.65
2022-11-15T19:47:52.781Z,4.72
2022-11-15T19:57:55.400Z,4.45
2022-11-15T20:07:59.379Z,4.65
2022-11-15T20:18:01.969Z,4.63
2022-11-15T20:28:06.546Z,4.50
2022-11-15T20:38:09.472Z,5.22
2022-11-15T20:48:14.695Z,4.70
2022-11-15T20:58:18.654Z,4.05
2022-11-15T21:08:22.657Z,3.90
2022-11-15T21:18:25.538Z,3.75
2022-11-15T21:28:29.537Z,3.67
2022-11-15T21:38:32.416Z,3.90
2022-11-15T21:48:37.105Z,4.07
2022-11-15T21:58:40.510Z,4.05
2022-11-15T22:08:44.799Z,3.40
2022-11-15T22:18:47.876Z,3.80
2022-11-15T22:28:52.068Z,3.30
2022-11-15T22:38:55.106Z,3.92
2022-11-15T22:49:03.158Z,3.30
2022-11-15T22:59:06.287Z,3.30
2022-11-15T23:09:10.851Z,3.65
2022-11-15T23:19:13.938Z,3.78
2022-11-15T23:29:20.782Z,3.97
2022-11-15T23:39:23.991Z,3.85
2022-11-15T23:49:28.448Z,4.35
2022-11-15T23:59:31.150Z,4.15
